createdAt,value
2023-05-10T00:00:27.760Z,500.00
2023-05-10T00:01:27.816Z,500.00
2023-05-10T00:02:27.947Z,500.00
2023-05-10T00:03:28.026Z,458.00
2023-05-10T00:04:27.981Z,418.00
2023-05-10T00:05:28.032Z,400.00
2023-05-10T00:06:28.094Z,419.00
2023-05-10T00:07:28.121Z,431.00
2023-05-10T00:08:28.148Z,451.00
2023-05-10T00:09:28.166Z,474.00
2023-05-10T00:10:28.215Z,493.00
2023-05-10T00:11:28.225Z,503.00
2023-05-10T00:12:28.253Z,504.00
2023-05-10T00:13:28.357Z,501.00
2023-05-10T00:14:28.264Z,497.00
2023-05-10T00:15:28.278Z,505.00
2023-05-10T00:16:28.368Z,514.00
2023-05-10T00:17:28.329Z,505.00
2023-05-10T00:18:28.301Z,501.00
2023-05-10T00:19:28.303Z,501.00
2023-05-10T00:20:28.304Z,516.00
2023-05-10T00:21:28.307Z,504.00
2023-05-10T00:22:28.319Z,504.00
2023-05-10T00:23:28.690Z,503.00
2023-05-10T00:24:28.675Z,508.00
2023-05-10T00:25:28.714Z,500.00
2023-05-10T00:26:28.331Z,506.00
2023-05-10T00:27:28.334Z,506.00
2023-05-10T00:28:28.346Z,508.00
2023-05-10T00:29:28.364Z,506.00
2023-05-10T00:30:28.345Z,502.00
2023-05-10T00:31:28.374Z,501.00
2023-05-10T00:32:28.370Z,520.00
2023-05-10T00:33:28.359Z,515.00
2023-05-10T00:34:28.382Z,507.00
2023-05-10T00:35:28.380Z,502.00
2023-05-10T00:36:28.361Z,506.00
2023-05-10T00:37:28.379Z,507.00
2023-05-10T00:38:28.784Z,517.00
2023-05-10T00:39:28.381Z,512.00
2023-05-10T00:40:28.389Z,514.00
2023-05-10T00:41:28.396Z,513.00
2023-05-10T00:42:28.398Z,507.00
2023-05-10T00:43:28.407Z,500.00
2023-05-10T00:44:28.411Z,501.00
2023-05-10T00:45:28.431Z,511.00
2023-05-10T00:46:28.534Z,513.00
2023-05-10T00:47:28.416Z,519.00
2023-05-10T00:48:28.424Z,503.00
2023-05-10T00:49:28.428Z,508.00
2023-05-10T00:50:28.542Z,514.00
2023-05-10T00:51:28.438Z,501.00
2023-05-10T00:52:28.431Z,504.00
2023-05-10T00:53:28.448Z,518.00
2023-05-10T00:54:28.450Z,514.00
2023-05-10T00:55:28.443Z,517.00
2023-05-10T00:56:28.451Z,521.00
2023-05-10T00:57:28.442Z,516.00
2023-05-10T00:58:28.459Z,509.00
2023-05-10T00:59:28.449Z,505.00
2023-05-10T01:00:28.446Z,510.00
2023-05-10T01:01:28.517Z,511.00
2023-05-10T01:02:28.536Z,514.00
2023-05-10T01:03:28.499Z,506.00
2023-05-10T01:04:28.465Z,497.00
2023-05-10T01:05:28.494Z,509.00
2023-05-10T01:06:28.463Z,503.00
2023-05-10T01:07:28.464Z,517.00
2023-05-10T01:08:28.472Z,521.00
2023-05-10T01:09:28.492Z,513.00
2023-05-10T01:10:28.485Z,514.00
2023-05-10T01:11:28.497Z,504.00
2023-05-10T01:12:28.550Z,511.00
2023-05-10T01:13:28.549Z,526.00
2023-05-10T01:14:28.507Z,527.00
2023-05-10T01:15:28.513Z,524.00
2023-05-10T01:16:28.573Z,526.00
2023-05-10T01:17:28.577Z,520.00
2023-05-10T01:18:28.525Z,515.00
2023-05-10T01:19:28.541Z,514.00
2023-05-10T01:20:28.532Z,511.00
2023-05-10T01:21:28.549Z,513.00
2023-05-10T01:22:28.546Z,516.00
2023-05-10T01:23:28.547Z,511.00
2023-05-10T01:24:28.604Z,523.00
2023-05-10T01:25:28.560Z,519.00
2023-05-10T01:26:28.576Z,522.00
2023-05-10T01:27:28.598Z,519.00
2023-05-10T01:28:28.592Z,522.00
2023-05-10T01:29:28.590Z,510.00
2023-05-10T01:30:28.602Z,520.00
2023-05-10T01:31:28.630Z,508.00
2023-05-10T01:32:28.638Z,524.00
2023-05-10T01:33:28.629Z,520.00
2023-05-10T01:34:28.612Z,532.00
2023-05-10T01:35:28.625Z,526.00
2023-05-10T01:36:28.631Z,515.00
2023-05-10T01:37:28.618Z,516.00
2023-05-10T01:38:28.797Z,515.00
2023-05-10T01:39:28.638Z,514.00
2023-05-10T01:40:28.648Z,525.00
2023-05-10T01:41:28.671Z,527.00
2023-05-10T01:42:28.667Z,519.00
2023-05-10T01:43:28.676Z,520.00
2023-05-10T01:44:28.691Z,524.00
2023-05-10T01:45:28.685Z,510.00
2023-05-10T01:46:28.776Z,515.00
2023-05-10T01:47:28.736Z,520.00
2023-05-10T01:48:28.765Z,512.00
2023-05-10T01:49:28.798Z,514.00
2023-05-10T01:50:28.764Z,523.00
2023-05-10T01:51:28.746Z,516.00
2023-05-10T01:52:28.753Z,515.00
2023-05-10T01:53:28.811Z,521.00
2023-05-10T01:54:28.761Z,513.00
2023-05-10T01:55:28.770Z,521.00
2023-05-10T01:56:28.783Z,519.00
2023-05-10T01:57:28.832Z,519.00
2023-05-10T01:58:28.761Z,519.00
2023-05-10T01:59:28.777Z,523.00
2023-05-10T02:00:28.815Z,515.00
2023-05-10T02:01:28.808Z,515.00
2023-05-10T02:02:28.849Z,525.00
2023-05-10T02:03:28.820Z,515.00
2023-05-10T02:04:28.804Z,527.00
2023-05-10T02:05:28.838Z,519.00
2023-05-10T02:06:28.803Z,520.00
2023-05-10T02:07:28.806Z,525.00
2023-05-10T02:08:28.812Z,508.00
2023-05-10T02:09:28.829Z,515.00
2023-05-10T02:10:28.833Z,523.00
2023-05-10T02:11:28.829Z,519.00
2023-05-10T02:12:28.909Z,518.00
2023-05-10T02:13:28.920Z,515.00
2023-05-10T02:14:28.878Z,523.00
2023-05-10T02:15:28.884Z,515.00
2023-05-10T02:16:28.906Z,510.00
2023-05-10T02:17:28.950Z,521.00
2023-05-10T02:18:28.909Z,519.00
2023-05-10T02:19:28.928Z,517.00
2023-05-10T02:20:28.949Z,520.00
2023-05-10T02:21:28.972Z,516.00
2023-05-10T02:22:28.948Z,521.00
2023-05-10T02:23:28.955Z,514.00
2023-05-10T02:24:28.960Z,514.00
2023-05-10T02:25:28.971Z,517.00
2023-05-10T02:26:28.978Z,512.00
2023-05-10T02:27:28.994Z,514.00
2023-05-10T02:28:28.994Z,515.00
2023-05-10T02:29:28.997Z,523.00
2023-05-10T02:30:29.014Z,507.00
2023-05-10T02:31:29.053Z,514.00
2023-05-10T02:32:29.055Z,516.00
2023-05-10T02:33:29.047Z,519.00
2023-05-10T02:34:29.056Z,519.00
2023-05-10T02:35:29.047Z,513.00
2023-05-10T02:36:29.055Z,514.00
2023-05-10T02:37:29.093Z,510.00
2023-05-10T02:38:29.102Z,510.00
2023-05-10T02:39:29.098Z,513.00
2023-05-10T02:40:29.116Z,514.00
2023-05-10T02:41:29.112Z,504.00
2023-05-10T02:42:29.132Z,507.00
2023-05-10T02:43:29.139Z,516.00
2023-05-10T02:44:29.153Z,515.00
2023-05-10T02:45:29.165Z,515.00
2023-05-10T02:46:29.201Z,520.00
2023-05-10T02:47:29.248Z,511.00
2023-05-10T02:48:29.200Z,517.00
2023-05-10T02:49:29.209Z,521.00
2023-05-10T02:50:29.212Z,510.00
2023-05-10T02:51:29.235Z,515.00
2023-05-10T02:52:29.235Z,509.00
2023-05-10T02:53:29.300Z,514.00
2023-05-10T02:54:29.258Z,515.00
2023-05-10T02:55:29.273Z,512.00
2023-05-10T02:56:29.286Z,519.00
2023-05-10T02:57:29.281Z,513.00
2023-05-10T02:58:29.290Z,514.00
2023-05-10T02:59:29.307Z,523.00
2023-05-10T03:00:29.312Z,508.00
2023-05-10T03:01:29.394Z,514.00
2023-05-10T03:02:29.355Z,514.00
2023-05-10T03:03:29.342Z,518.00
2023-05-10T03:04:29.412Z,521.00
2023-05-10T03:05:29.392Z,517.00
2023-05-10T03:06:29.375Z,511.00
2023-05-10T03:07:29.387Z,510.00
2023-05-10T03:08:29.453Z,524.00
2023-05-10T03:09:29.443Z,519.00
2023-05-10T03:10:29.436Z,515.00
2023-05-10T03:11:29.441Z,517.00
2023-05-10T03:12:29.452Z,509.00
2023-05-10T03:13:29.592Z,520.00
2023-05-10T03:14:29.470Z,520.00
2023-05-10T03:15:29.495Z,514.00
2023-05-10T03:16:29.569Z,516.00
2023-05-10T03:17:29.555Z,517.00
2023-05-10T03:18:29.520Z,506.00
2023-05-10T03:19:29.541Z,513.00
2023-05-10T03:20:29.531Z,511.00
2023-05-10T03:21:29.533Z,515.00
2023-05-10T03:22:29.544Z,515.00
2023-05-10T03:23:29.553Z,514.00
2023-05-10T03:24:29.563Z,515.00
2023-05-10T03:25:29.601Z,519.00
2023-05-10T03:26:29.587Z,513.00
2023-05-10T03:27:29.597Z,522.00
2023-05-10T03:28:29.600Z,515.00
2023-05-10T03:29:29.604Z,519.00
2023-05-10T03:30:29.614Z,517.00
2023-05-10T03:31:29.651Z,520.00
2023-05-10T03:32:29.655Z,510.00
2023-05-10T03:33:29.649Z,516.00
2023-05-10T03:34:29.665Z,518.00
2023-05-10T03:35:29.666Z,517.00
2023-05-10T03:36:29.682Z,522.00
2023-05-10T03:37:29.691Z,517.00
2023-05-10T03:38:30.612Z,514.00
2023-05-10T03:39:29.743Z,517.00
2023-05-10T03:40:29.744Z,517.00
2023-05-10T03:41:29.780Z,517.00
2023-05-10T03:42:29.759Z,517.00
2023-05-10T03:43:29.769Z,516.00
2023-05-10T03:44:29.811Z,511.00
2023-05-10T03:45:29.802Z,520.00
2023-05-10T03:46:29.833Z,521.00
2023-05-10T03:47:29.852Z,523.00
2023-05-10T03:48:30.183Z,513.00
2023-05-10T03:49:30.170Z,524.00
2023-05-10T03:50:30.161Z,513.00
2023-05-10T03:51:30.133Z,521.00
2023-05-10T03:52:30.122Z,512.00
2023-05-10T03:53:30.106Z,510.00
2023-05-10T03:54:30.097Z,519.00
2023-05-10T03:55:30.074Z,517.00
2023-05-10T03:56:30.064Z,522.00
2023-05-10T03:57:30.093Z,512.00
2023-05-10T03:58:30.032Z,520.00
2023-05-10T03:59:30.021Z,517.00
2023-05-10T04:00:29.999Z,521.00
2023-05-10T04:01:30.016Z,523.00
2023-05-10T04:02:30.102Z,521.00
2023-05-10T04:03:30.109Z,522.00
2023-05-10T04:04:30.054Z,515.00
2023-05-10T04:05:30.067Z,516.00
2023-05-10T04:06:30.131Z,518.00
2023-05-10T04:07:30.103Z,516.00
2023-05-10T04:08:30.126Z,511.00
2023-05-10T04:09:30.136Z,509.00
2023-05-10T04:10:30.161Z,518.00
2023-05-10T04:11:30.170Z,514.00
2023-05-10T04:12:30.184Z,517.00
2023-05-10T04:13:30.263Z,520.00
2023-05-10T04:14:30.204Z,516.00
2023-05-10T04:15:30.234Z,512.00
2023-05-10T04:16:30.296Z,517.00
2023-05-10T04:17:30.348Z,518.00
2023-05-10T04:18:30.270Z,516.00
2023-05-10T04:19:30.294Z,523.00
2023-05-10T04:20:30.302Z,520.00
2023-05-10T04:21:30.323Z,515.00
2023-05-10T04:22:30.334Z,522.00
2023-05-10T04:23:30.346Z,516.00
2023-05-10T04:24:30.368Z,519.00
2023-05-10T04:25:30.386Z,510.00
2023-05-10T04:26:30.415Z,513.00
2023-05-10T04:27:30.408Z,514.00
2023-05-10T04:28:30.413Z,511.00
2023-05-10T04:29:30.457Z,513.00
2023-05-10T04:30:30.526Z,516.00
2023-05-10T04:31:30.838Z,518.00
2023-05-10T04:32:30.935Z,515.00
2023-05-10T04:33:30.865Z,518.00
2023-05-10T04:34:30.878Z,517.00
2023-05-10T04:35:30.882Z,515.00
2023-05-10T04:36:30.875Z,516.00
2023-05-10T04:37:30.882Z,516.00
2023-05-10T04:38:30.878Z,515.00
2023-05-10T04:39:30.882Z,509.00
2023-05-10T04:40:30.876Z,515.00
2023-05-10T04:41:30.874Z,520.00
2023-05-10T04:42:30.877Z,520.00
2023-05-10T04:43:30.871Z,515.00
2023-05-10T04:44:30.884Z,519.00
2023-05-10T04:45:30.903Z,507.00
2023-05-10T04:46:30.911Z,509.00
2023-05-10T04:47:30.914Z,517.00
2023-05-10T04:48:30.877Z,516.00
2023-05-10T04:49:30.903Z,513.00
2023-05-10T04:50:30.899Z,513.00
2023-05-10T04:51:30.909Z,515.00
2023-05-10T04:52:31.787Z,516.00
2023-05-10T04:53:30.903Z,514.00
2023-05-10T04:54:30.909Z,514.00
2023-05-10T04:55:30.909Z,512.00
2023-05-10T04:56:30.794Z,513.00
2023-05-10T04:57:30.816Z,507.00
2023-05-10T04:58:30.837Z,507.00
2023-05-10T04:59:30.848Z,516.00
2023-05-10T05:00:30.864Z,513.00
2023-05-10T05:01:30.936Z,517.00
2023-05-10T05:02:31.045Z,511.00
2023-05-10T05:03:31.025Z,510.00
2023-05-10T05:04:30.920Z,519.00
2023-05-10T05:05:30.927Z,517.00
2023-05-10T05:06:30.940Z,514.00
2023-05-10T05:07:30.964Z,512.00
2023-05-10T05:08:30.985Z,502.00
2023-05-10T05:09:31.005Z,519.00
2023-05-10T05:10:31.017Z,515.00
2023-05-10T05:11:31.017Z,516.00
2023-05-10T05:12:31.031Z,519.00
2023-05-10T05:13:31.089Z,515.00
2023-05-10T05:14:31.068Z,515.00
2023-05-10T05:15:31.081Z,514.00
2023-05-10T05:16:31.196Z,510.00
2023-05-10T05:17:31.188Z,509.00
2023-05-10T05:18:31.132Z,517.00
2023-05-10T05:19:31.378Z,504.00
2023-05-10T05:20:31.183Z,516.00
2023-05-10T05:21:31.185Z,513.00
2023-05-10T05:22:31.276Z,511.00
2023-05-10T05:23:31.216Z,510.00
2023-05-10T05:24:31.229Z,508.00
2023-05-10T05:25:31.245Z,515.00
2023-05-10T05:26:31.270Z,509.00
2023-05-10T05:27:31.280Z,511.00
2023-05-10T05:28:31.289Z,512.00
2023-05-10T05:29:31.304Z,502.00
2023-05-10T05:30:31.331Z,515.00
2023-05-10T05:31:31.484Z,513.00
2023-05-10T05:32:31.375Z,515.00
2023-05-10T05:33:31.372Z,512.00
2023-05-10T05:34:31.386Z,512.00
2023-05-10T05:35:31.388Z,511.00
2023-05-10T05:36:31.391Z,515.00
2023-05-10T05:37:31.399Z,506.00
2023-05-10T05:38:31.430Z,520.00
2023-05-10T05:39:31.447Z,515.00
2023-05-10T05:40:31.451Z,511.00
2023-05-10T05:41:31.478Z,507.00
2023-05-10T05:42:31.512Z,513.00
2023-05-10T05:43:31.504Z,516.00
2023-05-10T05:44:31.905Z,510.00
2023-05-10T05:45:31.561Z,507.00
2023-05-10T05:46:31.524Z,511.00
2023-05-10T05:47:31.714Z,513.00
2023-05-10T05:48:31.605Z,512.00
2023-05-10T05:49:32.995Z,509.00
2023-05-10T05:50:31.882Z,514.00
2023-05-10T05:51:31.601Z,515.00
2023-05-10T05:52:31.615Z,514.00
2023-05-10T05:53:31.655Z,513.00
2023-05-10T05:54:31.888Z,519.00
2023-05-10T05:55:31.665Z,516.00
2023-05-10T05:56:31.690Z,516.00
2023-05-10T05:57:31.679Z,513.00
2023-05-10T05:58:31.901Z,507.00
2023-05-10T05:59:31.893Z,513.00
2023-05-10T06:00:31.728Z,516.00
2023-05-10T06:01:31.741Z,518.00
2023-05-10T06:02:31.835Z,510.00
2023-05-10T06:03:31.886Z,514.00
2023-05-10T06:04:35.159Z,510.00
2023-05-10T06:05:31.749Z,511.00
2023-05-10T06:06:31.749Z,511.00
2023-05-10T06:07:31.891Z,514.00
2023-05-10T06:08:31.729Z,507.00
2023-05-10T06:09:31.726Z,517.00
2023-05-10T06:10:31.730Z,513.00
2023-05-10T06:11:31.699Z,516.00
2023-05-10T06:12:31.889Z,516.00
2023-05-10T06:13:31.745Z,515.00
2023-05-10T06:14:31.988Z,510.00
2023-05-10T06:15:31.943Z,507.00
2023-05-10T06:16:32.015Z,517.00
2023-05-10T06:17:32.071Z,515.00
2023-05-10T06:18:31.947Z,511.00
2023-05-10T06:19:31.944Z,516.00
2023-05-10T06:20:32.543Z,516.00
2023-05-10T06:21:31.944Z,515.00
2023-05-10T06:22:31.949Z,515.00
2023-05-10T06:23:31.943Z,505.00
2023-05-10T06:24:32.423Z,514.00
2023-05-10T06:25:31.968Z,513.00
2023-05-10T06:26:31.611Z,510.00
2023-05-10T06:27:31.622Z,508.00
2023-05-10T06:28:31.628Z,507.00
2023-05-10T06:29:31.901Z,509.00
2023-05-10T06:30:31.952Z,507.00
2023-05-10T06:31:31.964Z,513.00
2023-05-10T06:32:31.976Z,515.00
2023-05-10T06:33:31.946Z,514.00
2023-05-10T06:34:32.405Z,518.00
2023-05-10T06:35:31.984Z,517.00
2023-05-10T06:36:32.001Z,520.00
2023-05-10T06:37:31.945Z,508.00
2023-05-10T06:38:32.399Z,519.00
2023-05-10T06:39:32.005Z,521.00
2023-05-10T06:40:32.012Z,523.00
2023-05-10T06:41:31.962Z,520.00
2023-05-10T06:42:31.950Z,524.00
2023-05-10T06:43:32.405Z,523.00
2023-05-10T06:44:32.436Z,525.00
2023-05-10T06:45:31.971Z,521.00
2023-05-10T06:46:32.006Z,528.00
2023-05-10T06:47:32.017Z,526.00
2023-05-10T06:48:31.915Z,532.00
2023-05-10T06:49:32.408Z,534.00
2023-05-10T06:50:32.410Z,533.00
2023-05-10T06:51:31.954Z,527.00
2023-05-10T06:52:32.015Z,531.00
2023-05-10T06:53:32.975Z,534.00
2023-05-10T06:54:32.415Z,532.00
2023-05-10T06:55:39.468Z,535.00
2023-05-10T06:56:32.020Z,536.00
2023-05-10T06:57:32.402Z,539.00
2023-05-10T06:58:32.446Z,545.00
2023-05-10T06:59:32.058Z,541.00
2023-05-10T07:00:32.122Z,554.00
2023-05-10T07:01:32.020Z,545.00
2023-05-10T07:02:32.010Z,553.00
2023-05-10T07:03:31.958Z,557.00
2023-05-10T07:04:32.496Z,545.00
2023-05-10T07:05:31.954Z,545.00
2023-05-10T07:06:33.988Z,553.00
2023-05-10T07:07:31.932Z,554.00
2023-05-10T07:08:31.953Z,554.00
2023-05-10T07:09:31.964Z,553.00
2023-05-10T07:10:31.927Z,559.00
2023-05-10T07:11:31.900Z,554.00
2023-05-10T07:12:31.940Z,565.00
2023-05-10T07:13:31.921Z,567.00
2023-05-10T07:14:31.885Z,570.00
2023-05-10T07:15:31.892Z,555.00
2023-05-10T07:16:31.995Z,568.00
2023-05-10T07:17:32.047Z,565.00
2023-05-10T07:18:31.949Z,563.00
2023-05-10T07:19:31.849Z,571.00
2023-05-10T07:20:31.849Z,561.00
2023-05-10T07:21:32.887Z,567.00
2023-05-10T07:22:38.796Z,574.00
2023-05-10T07:23:31.816Z,575.00
2023-05-10T07:24:31.845Z,575.00
2023-05-10T07:25:31.807Z,577.00
2023-05-10T07:26:31.931Z,575.00
2023-05-10T07:27:31.903Z,570.00
2023-05-10T07:28:31.798Z,569.00
2023-05-10T07:29:31.966Z,574.00
2023-05-10T07:30:31.819Z,576.00
2023-05-10T07:31:31.827Z,581.00
2023-05-10T07:32:31.987Z,585.00
2023-05-10T07:33:31.752Z,593.00
2023-05-10T07:34:31.752Z,591.00
2023-05-10T07:35:31.972Z,592.00
2023-05-10T07:36:31.741Z,592.00
2023-05-10T07:37:31.750Z,578.00
2023-05-10T07:38:31.720Z,594.00
2023-05-10T07:39:32.702Z,601.00
2023-05-10T07:40:32.090Z,595.00
2023-05-10T07:41:33.900Z,626.00
2023-05-10T07:42:31.727Z,650.00
2023-05-10T07:43:32.042Z,664.00
2023-05-10T07:44:32.479Z,679.00
2023-05-10T07:45:39.414Z,709.00
2023-05-10T07:46:31.736Z,710.00
2023-05-10T07:47:35.166Z,717.00
2023-05-10T07:48:34.859Z,712.00
2023-05-10T07:49:31.970Z,712.00
2023-05-10T07:50:32.007Z,721.00
2023-05-10T07:51:31.651Z,738.00
2023-05-10T07:52:31.625Z,758.00
2023-05-10T07:53:31.633Z,808.00
2023-05-10T07:54:31.999Z,856.00
2023-05-10T07:55:31.585Z,870.00
2023-05-10T07:56:31.620Z,873.00
2023-05-10T07:57:32.569Z,922.00
2023-05-10T07:58:31.575Z,919.00
2023-05-10T07:59:35.177Z,973.00
2023-05-10T08:00:31.591Z,975.00
2023-05-10T08:01:31.941Z,977.00
2023-05-10T08:02:31.612Z,993.00
2023-05-10T08:03:31.615Z,1024.00
2023-05-10T08:04:31.577Z,1094.00
2023-05-10T08:05:33.125Z,1088.00
2023-05-10T08:06:32.094Z,1089.00
2023-05-10T08:07:31.507Z,1094.00
2023-05-10T08:08:31.533Z,1116.00
2023-05-10T08:09:31.489Z,1149.00
2023-05-10T08:10:31.945Z,1190.00
2023-05-10T08:11:32.798Z,1195.00
2023-05-10T08:12:31.500Z,1223.00
2023-05-10T08:13:31.465Z,1220.00
2023-05-10T08:14:31.462Z,1253.00
2023-05-10T08:15:31.445Z,1241.00
2023-05-10T08:16:31.538Z,1244.00
2023-05-10T08:17:31.507Z,1262.00
2023-05-10T08:18:31.441Z,1286.00
2023-05-10T08:19:31.419Z,1289.00
2023-05-10T08:20:31.415Z,1315.00
2023-05-10T08:21:31.411Z,1318.00
2023-05-10T08:22:31.399Z,1365.00
2023-05-10T08:23:31.388Z,1380.00
2023-05-10T08:24:31.395Z,1410.00
2023-05-10T08:25:31.452Z,1376.00
2023-05-10T08:26:31.376Z,1404.00
2023-05-10T08:27:31.366Z,1436.00
2023-05-10T08:28:31.392Z,1440.00
2023-05-10T08:29:42.336Z,1446.00
2023-05-10T08:30:31.348Z,1447.00
2023-05-10T08:31:31.427Z,1455.00
2023-05-10T08:32:31.338Z,1476.00
2023-05-10T08:33:31.514Z,1477.00
2023-05-10T08:34:31.322Z,1511.00
2023-05-10T08:35:31.492Z,1516.00
2023-05-10T08:36:31.311Z,1522.00
2023-05-10T08:37:31.308Z,1541.00
2023-05-10T08:38:31.293Z,1537.00
2023-05-10T08:39:31.311Z,1517.00
2023-05-10T08:40:31.638Z,1489.00
2023-05-10T08:41:31.510Z,1517.00
2023-05-10T08:42:31.291Z,1556.00
2023-05-10T08:43:31.489Z,1537.00
2023-05-10T08:44:49.448Z,1524.00
2023-05-10T08:45:31.526Z,1526.00
2023-05-10T08:46:31.357Z,1538.00
2023-05-10T08:47:31.351Z,1529.00
2023-05-10T08:48:31.227Z,1422.00
2023-05-10T08:49:31.243Z,1446.00
2023-05-10T08:50:31.472Z,1439.00
2023-05-10T08:51:31.212Z,1466.00
2023-05-10T08:52:31.697Z,1495.00
2023-05-10T08:53:31.188Z,1492.00
2023-05-10T08:54:31.200Z,1495.00
2023-05-10T08:55:31.460Z,1482.00
2023-05-10T08:56:31.214Z,1473.00
2023-05-10T08:57:31.191Z,1470.00
2023-05-10T08:58:31.482Z,1466.00
2023-05-10T08:59:31.190Z,1468.00
2023-05-10T09:00:31.243Z,1468.00
2023-05-10T09:01:31.195Z,1448.00
2023-05-10T09:02:31.164Z,1459.00
2023-05-10T09:03:31.137Z,1431.00
2023-05-10T09:04:31.218Z,1422.00
2023-05-10T09:05:31.322Z,1417.00
2023-05-10T09:06:31.113Z,1419.00
2023-05-10T09:07:31.104Z,1434.00
2023-05-10T09:08:31.091Z,1408.00
2023-05-10T09:09:31.486Z,1391.00
2023-05-10T09:10:31.206Z,1368.00
2023-05-10T09:11:34.492Z,1395.00
2023-05-10T09:12:31.207Z,1397.00
2023-05-10T09:13:31.197Z,1398.00
2023-05-10T09:14:31.207Z,1384.00
2023-05-10T09:15:31.483Z,1375.00
2023-05-10T09:16:31.228Z,1359.00
2023-05-10T09:17:31.204Z,1387.00
2023-05-10T09:18:31.183Z,1363.00
2023-05-10T09:19:31.153Z,1350.00
2023-05-10T09:20:31.475Z,1350.00
2023-05-10T09:21:31.148Z,1338.00
2023-05-10T09:22:31.137Z,1318.00
2023-05-10T09:23:31.119Z,1307.00
2023-05-10T09:24:31.111Z,1331.00
2023-05-10T09:25:31.484Z,1321.00
2023-05-10T09:26:31.139Z,1311.00
2023-05-10T09:27:31.102Z,1313.00
2023-05-10T09:28:31.111Z,1308.00
2023-05-10T09:29:31.483Z,1317.00
2023-05-10T09:30:31.084Z,1318.00
2023-05-10T09:31:31.123Z,1316.00
2023-05-10T09:32:31.121Z,1303.00
2023-05-10T09:33:46.652Z,1313.00
2023-05-10T09:34:31.534Z,1315.00
2023-05-10T09:35:31.489Z,1315.00
2023-05-10T09:36:31.067Z,1319.00
2023-05-10T09:37:31.042Z,1322.00
2023-05-10T09:38:31.477Z,1321.00
2023-05-10T09:39:31.029Z,1307.00
2023-05-10T09:40:31.014Z,1342.00
2023-05-10T09:41:31.017Z,1305.00
2023-05-10T09:42:31.008Z,1311.00
2023-05-10T09:43:31.069Z,1301.00
2023-05-10T09:44:30.986Z,1316.00
2023-05-10T09:45:31.502Z,1327.00
2023-05-10T09:46:31.033Z,1266.00
2023-05-10T09:47:30.999Z,1271.00
2023-05-10T09:48:30.988Z,1270.00
2023-05-10T09:49:30.993Z,1270.00
2023-05-10T09:50:30.952Z,1256.00
2023-05-10T09:51:30.940Z,1265.00
2023-05-10T09:52:30.977Z,1246.00
2023-05-10T09:53:31.485Z,1224.00
2023-05-10T09:54:31.116Z,1255.00
2023-05-10T09:55:31.153Z,1272.00
2023-05-10T09:56:31.503Z,1287.00
2023-05-10T09:57:32.355Z,1292.00
2023-05-10T09:58:31.219Z,1306.00
2023-05-10T09:59:31.248Z,1289.00
2023-05-10T10:00:31.489Z,1290.00
2023-05-10T10:01:32.243Z,1309.00
2023-05-10T10:02:31.255Z,1341.00
2023-05-10T10:03:31.191Z,1349.00
2023-05-10T10:04:31.291Z,1350.00
2023-05-10T10:05:31.543Z,1366.00
2023-05-10T10:06:31.172Z,1367.00
2023-05-10T10:07:31.159Z,1356.00
2023-05-10T10:08:31.184Z,1302.00
2023-05-10T10:09:31.167Z,1249.00
2023-05-10T10:10:31.500Z,1212.00
2023-05-10T10:11:31.194Z,1226.00
2023-05-10T10:12:31.256Z,1210.00
2023-05-10T10:13:31.291Z,1198.00
2023-05-10T10:14:31.367Z,1204.00
2023-05-10T10:15:31.511Z,1200.00
2023-05-10T10:16:31.494Z,1204.00
2023-05-10T10:17:31.512Z,1220.00
2023-05-10T10:18:32.026Z,1208.00
2023-05-10T10:19:31.616Z,1211.00
2023-05-10T10:20:32.038Z,1224.00
2023-05-10T10:21:31.724Z,1218.00
2023-05-10T10:22:31.792Z,1221.00
2023-05-10T10:23:31.836Z,1209.00
2023-05-10T10:24:31.934Z,1213.00
2023-05-10T10:25:32.066Z,1213.00
2023-05-10T10:26:32.057Z,1213.00
2023-05-10T10:27:32.107Z,1218.00
2023-05-10T10:28:32.146Z,1227.00
2023-05-10T10:29:32.198Z,1238.00
2023-05-10T10:30:32.532Z,1252.00
2023-05-10T10:31:32.334Z,1214.00
2023-05-10T10:32:32.416Z,1215.00
2023-05-10T10:33:32.506Z,1205.00
2023-05-10T10:34:32.617Z,1210.00
2023-05-10T10:35:33.044Z,1212.00
2023-05-10T10:36:32.602Z,1240.00
2023-05-10T10:37:32.615Z,1239.00
2023-05-10T10:38:32.659Z,1264.00
2023-05-10T10:39:33.117Z,1263.00
2023-05-10T10:40:34.902Z,1306.00
2023-05-10T10:41:33.006Z,1310.00
2023-05-10T10:42:32.765Z,1325.00
2023-05-10T10:43:33.207Z,1328.00
2023-05-10T10:44:32.711Z,1325.00
2023-05-10T10:45:33.099Z,1349.00
2023-05-10T10:46:32.738Z,1351.00
2023-05-10T10:47:32.727Z,1366.00
2023-05-10T10:48:32.686Z,1384.00
2023-05-10T10:49:32.683Z,1383.00
2023-05-10T10:50:32.687Z,1397.00
2023-05-10T10:51:32.670Z,1410.00
2023-05-10T10:52:32.760Z,1429.00
2023-05-10T10:53:32.686Z,1439.00
2023-05-10T10:54:32.660Z,1455.00
2023-05-10T10:55:32.639Z,1459.00
2023-05-10T10:56:32.633Z,1475.00
2023-05-10T10:57:33.014Z,1468.00
2023-05-10T10:58:32.622Z,1495.00
2023-05-10T10:59:32.609Z,1512.00
2023-05-10T11:00:32.620Z,1515.00
2023-05-10T11:01:32.641Z,1530.00
2023-05-10T11:02:32.615Z,1539.00
2023-05-10T11:03:33.262Z,1549.00
2023-05-10T11:04:33.089Z,1560.00
2023-05-10T11:05:32.597Z,1555.00
2023-05-10T11:06:32.561Z,1579.00
2023-05-10T11:07:32.560Z,1577.00
2023-05-10T11:08:32.583Z,1593.00
2023-05-10T11:09:33.049Z,1598.00
2023-05-10T11:10:32.544Z,1476.00
2023-05-10T11:11:32.532Z,1382.00
2023-05-10T11:12:32.574Z,1370.00
2023-05-10T11:13:32.511Z,1421.00
2023-05-10T11:14:32.507Z,1336.00
2023-05-10T11:15:32.510Z,1376.00
2023-05-10T11:16:32.539Z,1382.00
2023-05-10T11:17:32.570Z,1400.00
2023-05-10T11:18:32.493Z,1379.00
2023-05-10T11:19:32.485Z,1431.00
2023-05-10T11:20:32.464Z,1424.00
2023-05-10T11:21:32.531Z,1453.00
2023-05-10T11:22:32.728Z,1457.00
2023-05-10T11:23:32.456Z,1453.00
2023-05-10T11:24:32.502Z,1448.00
2023-05-10T11:25:32.510Z,1460.00
2023-05-10T11:26:32.522Z,1483.00
2023-05-10T11:27:32.541Z,1489.00
2023-05-10T11:28:32.560Z,1475.00
2023-05-10T11:29:32.605Z,1456.00
2023-05-10T11:30:32.622Z,1473.00
2023-05-10T11:31:32.615Z,1476.00
2023-05-10T11:32:32.707Z,1478.00
2023-05-10T11:33:32.664Z,1481.00
2023-05-10T11:34:32.659Z,1479.00
2023-05-10T11:35:32.669Z,1469.00
2023-05-10T11:36:32.689Z,1463.00
2023-05-10T11:37:32.709Z,1477.00
2023-05-10T11:38:32.737Z,1498.00
2023-05-10T11:39:32.757Z,1497.00
2023-05-10T11:40:32.798Z,1469.00
2023-05-10T11:41:32.792Z,1463.00
2023-05-10T11:42:32.794Z,1481.00
2023-05-10T11:43:33.052Z,1459.00
2023-05-10T11:44:32.874Z,1452.00
2023-05-10T11:45:32.849Z,1467.00
2023-05-10T11:46:33.135Z,1465.00
2023-05-10T11:47:32.912Z,1470.00
2023-05-10T11:48:32.867Z,1470.00
2023-05-10T11:49:32.880Z,1454.00
2023-05-10T11:50:32.892Z,1490.00
2023-05-10T11:51:32.911Z,1524.00
2023-05-10T11:52:32.923Z,1518.00
2023-05-10T11:53:32.958Z,1444.00
2023-05-10T11:54:32.967Z,1295.00
2023-05-10T11:55:33.023Z,1190.00
2023-05-10T11:56:33.070Z,1184.00
2023-05-10T11:57:33.084Z,1200.00
2023-05-10T11:58:33.557Z,1224.00
2023-05-10T11:59:33.139Z,1314.00
2023-05-10T12:00:33.182Z,1372.00
2023-05-10T12:01:33.214Z,1404.00
2023-05-10T12:02:33.310Z,1436.00
2023-05-10T12:03:33.531Z,1458.00
2023-05-10T12:04:33.430Z,1477.00
2023-05-10T12:05:33.389Z,1464.00
2023-05-10T12:06:33.616Z,1455.00
2023-05-10T12:07:33.375Z,1445.00
2023-05-10T12:08:33.460Z,1409.00
2023-05-10T12:09:43.388Z,1411.00
2023-05-10T12:10:33.448Z,1413.00
2023-05-10T12:11:33.562Z,1416.00
2023-05-10T12:12:33.434Z,1417.00
2023-05-10T12:13:33.379Z,1416.00
2023-05-10T12:14:33.367Z,1416.00
2023-05-10T12:15:33.364Z,1400.00
2023-05-10T12:16:33.426Z,1399.00
2023-05-10T12:17:33.614Z,1406.00
2023-05-10T12:18:33.339Z,1395.00
2023-05-10T12:19:33.297Z,1380.00
2023-05-10T12:20:33.289Z,1379.00